Paris, France

15:49 CEST le 22 octobre 2014 (GMT +0200)
Charles de Gaulle | Change Station
CLOSE
Current Station
Aéroport
Location: Paris / Charles De Gaulle,
Altitude: 367 ft
Stations météo à proximité

Alt. 367 ft 49.02 °N, 2.53 °E | Updated 19 minutes ago

Mostly Cloudy
Nuageux
55 ° F
Paraît 55 ° F
N
12
Vent Variable Vent de ONO

Aujourd'hui
Haut(e) -- | Bas -- ° F
--% Risque de précip.
Hier
Haut(e) -- | Bas -- ° F
Precip. -- pouce
8:20 AM 6:46 PM
Lune descendante, 2% visible
Pression 30.30 pouce
Visibilité 6.2 Miles terrestres
Nuages Nuageux 3300 ft
Nuageux 5000 ft
Point de rosée 41 ° F
Humidité 58%
Précipitations 0.00 pouce
Profondeur de la couche neigeuse Non disponible.
UV 1 sur 12
Pollen Non disponible.
Qualité de l'air Non disponible.
Flu Activity Non disponible.
METAR LFPG 221330Z 30010KT 9999 BKN033 BKN050 13/05 Q1026 NOSIG

More Conditions Fewer Conditions

Pression 30.30 pouce
Visibilité 6.2 Miles terrestres
Nuages Nuageux 3300 ft
Nuageux 5000 ft
Point de rosée 41 ° F
Humidité 58%
Précipitations 0.00 pouce
Profondeur de la couche neigeuse Non disponible.
UV 1 sur 12
Pollen Non disponible.
Qualité de l'air Non disponible.
Flu Activity Non disponible.
METAR LFPG 221330Z 30010KT 9999 BKN033 BKN050 13/05 Q1026 NOSIG

More Conditions Fewer Conditions

10-Day Weather Forecast

Almanac

Astronomie

Oct. 22, 2014 Lever Coucher
Temps réel 08:20 CEST 18:46 CEST
Crépuscule civil 07:48 CEST 19:19 CEST
Crépuscule nautique 07:11 CEST 19:56 CEST
Crépuscule astronomique 06:35 CEST 20:32 CEST
Lune 06:40 CEST 18:10 CEST
Durée de lumière visible 11h 30m
Longueur du jour
10h 25m
Tomorrow will be 3m 25s shorter.
Lune descendante, 2% of the Moon is Illuminated
Aujourd'hui
Lune descendante
Oct 23
Nouveau
Oct 30
Premier quartier
Nov 6
Pleine lune
Nov 14
Dernier quartier

Les extrêmes de température d’hier

Country Highs Country Lows

Community

WunderPhotos

Upload Photos

1,763,919 Photos téléchargées !

Nearby

Qualité de l'air

Not available.

Épaisseur de neige

Not available.

Activité sismique

Ville Distance Mag. Time & Date
No recent earthquake activity has been reported nearby.
Minimum magnitude displayed is 2.5.

Températures des eaux côtières

Lieu Température
Aucun rapport de station

Stations météo à proximité